Hardesty, Oklahoma
Current Conditions -  °F | °C
As of 1:53 AM on Wednesday 26 Nov 2014 (Local Time) from KGUY Reporting Station
Clear Clear  
Wind Chill: 26°   Ceiling: Unl
Heat Index: 36°   Visibility: 10mi
Dew Point: 19°   Wind: 16mph
Humidity: 50%   Direction: 360°N
Pressure: 30.03"   Gusts: NA
Location:  36.62°N, 101.19°W
Report Text: KGUY 260753Z AUTO 36014KT 10SM CLR 02/M07 A3003 RMK AO2 PRESRR SLP163 T00221072
Loading
Personal Weather Stations






























Interactive Weather Map New forecast layout! Learn more

10-Day Weather Forecast

Advertisements
Track Severe Weather on mobile